createdAt,value
2023-06-14T00:05:17.841Z,11.27
2023-06-14T00:15:20.939Z,11.18
2023-06-14T00:25:29.189Z,13.15
2023-06-14T00:35:32.984Z,17.48
2023-06-14T00:45:37.424Z,13.32
2023-06-14T01:05:45.458Z,11.48
2023-06-14T01:15:49.434Z,11.63
2023-06-14T01:25:54.585Z,12.73
2023-06-14T01:35:58.849Z,10.07
2023-06-14T01:46:05.322Z,11.35
2023-06-14T01:56:09.010Z,10.93
2023-06-14T02:06:14.086Z,9.83
2023-06-14T02:16:18.886Z,18.60
2023-06-14T02:26:23.726Z,10.38
2023-06-14T02:36:27.485Z,10.48
2023-06-14T02:46:32.008Z,6.60
2023-06-14T02:56:35.285Z,12.60
2023-06-14T03:06:40.728Z,12.93
2023-06-14T03:16:45.270Z,14.50
2023-06-14T03:26:51.939Z,9.32
2023-06-14T03:36:55.567Z,12.13
2023-06-14T03:47:01.148Z,8.70
2023-06-14T03:57:06.321Z,13.63
2023-06-14T04:07:10.988Z,15.10
2023-06-14T04:17:14.141Z,13.20
2023-06-14T04:27:22.778Z,11.45
2023-06-14T04:37:29.153Z,13.45
2023-06-14T04:47:35.531Z,16.98
2023-06-14T04:57:39.914Z,12.48
2023-06-14T05:07:45.328Z,11.02
2023-06-14T05:17:54.311Z,16.02
2023-06-14T05:27:58.812Z,17.95
2023-06-14T05:38:02.301Z,14.27
2023-06-14T05:48:07.210Z,14.40
2023-06-14T05:58:10.454Z,12.75
2023-06-14T06:08:15.400Z,12.95
2023-06-14T06:18:18.551Z,12.18
2023-06-14T06:28:23.074Z,18.50
2023-06-14T06:38:27.234Z,16.15
2023-06-14T06:58:35.697Z,14.07
2023-06-14T07:18:45.054Z,11.05
2023-06-14T07:28:49.986Z,10.18
2023-06-14T07:38:53.080Z,8.80
2023-06-14T07:48:57.540Z,14.07
2023-06-14T07:59:00.758Z,6.82
2023-06-14T08:09:05.308Z,10.80
2023-06-14T08:19:11.594Z,9.18
2023-06-14T08:29:16.100Z,13.38
2023-06-14T08:39:19.313Z,6.47
2023-06-14T08:49:24.586Z,7.80
2023-06-14T08:59:29.146Z,9.88
2023-06-14T09:09:33.780Z,6.10
2023-06-14T09:19:37.992Z,11.02
2023-06-14T09:29:42.485Z,4.22
2023-06-14T09:39:52.292Z,5.18
2023-06-14T09:49:57.632Z,6.82
2023-06-14T10:00:06.389Z,8.93
2023-06-14T10:10:18.432Z,2.42
2023-06-14T10:20:31.059Z,4.82
2023-06-14T10:30:35.683Z,3.53
2023-06-14T10:40:39.826Z,7.35
2023-06-14T10:50:46.246Z,5.05
2023-06-14T11:00:54.734Z,5.53
2023-06-14T11:11:02.314Z,6.85
2023-06-14T11:21:05.971Z,2.90
2023-06-14T11:31:14.364Z,3.95
2023-06-14T11:41:21.169Z,10.60
2023-06-14T11:51:26.377Z,5.38
2023-06-14T12:01:32.385Z,3.55
2023-06-14T12:11:38.071Z,4.53
2023-06-14T12:21:42.548Z,2.65
2023-06-14T12:31:47.130Z,2.53
2023-06-14T12:41:50.667Z,3.78
2023-06-14T12:51:55.232Z,7.32
2023-06-14T13:01:58.292Z,6.03
2023-06-14T13:12:03.307Z,5.45
2023-06-14T13:22:07.195Z,2.35
2023-06-14T13:32:11.922Z,5.53
2023-06-14T13:42:15.138Z,2.78
2023-06-14T13:52:19.666Z,2.88
2023-06-14T14:02:23.157Z,2.60
2023-06-14T14:12:27.650Z,5.50
2023-06-14T14:22:33.829Z,5.15
2023-06-14T14:32:44.629Z,3.88
2023-06-14T14:42:50.927Z,2.07
2023-06-14T14:52:55.770Z,2.90
2023-06-14T15:03:02.433Z,4.18
2023-06-14T15:13:07.700Z,4.85
2023-06-14T15:23:11.575Z,1.50
2023-06-14T15:33:21.265Z,6.13
2023-06-14T15:43:25.088Z,3.05
2023-06-14T15:53:29.611Z,1.90
2023-06-14T16:03:32.717Z,2.78
2023-06-14T16:13:37.213Z,3.40
2023-06-14T16:23:40.795Z,4.85
2023-06-14T16:33:48.612Z,2.35
2023-06-14T16:43:55.250Z,5.40
2023-06-14T16:54:06.563Z,2.78
2023-06-14T17:04:12.700Z,3.80
2023-06-14T17:14:23.479Z,2.78
2023-06-14T17:24:29.373Z,3.70
2023-06-14T17:34:39.619Z,3.75
2023-06-14T17:44:45.499Z,7.00
2023-06-14T17:54:56.625Z,2.10
2023-06-14T18:05:02.784Z,8.40
2023-06-14T18:15:14.099Z,4.88
2023-06-14T18:25:20.536Z,5.95
2023-06-14T18:35:28.169Z,4.75
2023-06-14T18:45:37.362Z,2.83
2023-06-14T18:55:47.633Z,4.50
2023-06-14T19:05:56.531Z,8.45
2023-06-14T19:16:01.078Z,3.75
2023-06-14T19:26:08.084Z,4.75
2023-06-14T19:36:22.369Z,9.55
2023-06-14T19:46:26.577Z,6.53
2023-06-14T19:56:31.222Z,8.40
2023-06-14T20:06:34.208Z,10.82
2023-06-14T20:16:38.680Z,5.45
2023-06-14T20:26:41.783Z,11.25
2023-06-14T20:36:46.173Z,6.05
2023-06-14T20:46:49.697Z,4.13
2023-06-14T20:56:54.201Z,6.40
2023-06-14T21:06:57.186Z,11.32
2023-06-14T21:17:02.054Z,5.22
2023-06-14T21:27:05.510Z,9.45
2023-06-14T21:37:11.244Z,10.07
2023-06-14T21:47:15.588Z,8.68
2023-06-14T21:57:20.027Z,7.05
2023-06-14T22:17:30.476Z,14.38
2023-06-14T22:27:33.724Z,12.45
2023-06-14T22:37:38.316Z,10.20
2023-06-14T22:47:42.677Z,13.82
2023-06-14T22:57:48.422Z,11.15
2023-06-14T23:07:53.102Z,11.20
2023-06-14T23:28:04.213Z,7.07
2023-06-14T23:38:13.607Z,8.93
2023-06-14T23:48:16.996Z,9.18
2023-06-14T23:58:21.580Z,7.47
